Time;durP1;ratioP1;P1;durP2;ratioP2;P2;SDS_P1;SDS_P2;PMS_P1;PMS_P2;Temp;Humidity;BMP_temperature;BMP_pressure;BME280_temperature;BME280_humidity;BME280_pressure;Samples;Min_cycle;Max_cycle;Signal;HPM_P1;HPM_P2
2022/07/14 00:00:29;;;;;;;4.83;1.70;;;;;;;25.93;36.10;100958.85;1722881;81;21991;-82
2022/07/14 00:02:55;;;;;;;2.98;1.50;;;;;;;25.93;36.11;100950.48;1722947;81;21093;-82
2022/07/14 00:05:22;;;;;;;3.02;1.70;;;;;;;25.93;36.09;100956.88;1723174;81;21017;-82
2022/07/14 00:07:48;;;;;;;5.08;1.98;;;;;;;25.94;36.09;100957.70;1723144;81;21078;-82
2022/07/14 00:10:15;;;;;;;4.35;1.90;;;;;;;25.94;36.09;100950.72;1723520;81;21038;-82
2022/07/14 00:12:41;;;;;;;6.87;2.27;;;;;;;25.95;36.09;100949.57;1722994;81;21109;-81
2022/07/14 00:15:08;;;;;;;2.62;1.60;;;;;;;25.95;36.11;100944.00;1723191;81;21602;-81
2022/07/14 00:17:35;;;;;;;4.83;1.85;;;;;;;25.95;36.11;100946.78;1723170;82;21030;-81
2022/07/14 00:20:02;;;;;;;3.35;1.80;;;;;;;25.96;36.11;100948.99;1723051;82;21050;-81
2022/07/14 00:22:28;;;;;;;4.30;1.60;;;;;;;25.96;36.14;100948.99;1723206;81;21067;-82
2022/07/14 00:24:55;;;;;;;3.70;1.87;;;;;;;25.96;36.17;100942.02;1723314;82;21120;-81
2022/07/14 00:27:21;;;;;;;3.42;1.65;;;;;;;25.96;36.17;100942.02;1722985;82;21046;-81
2022/07/14 00:29:48;;;;;;;4.42;1.70;;;;;;;25.96;36.17;100945.63;1723345;82;21003;-81
2022/07/14 00:32:15;;;;;;;4.45;1.70;;;;;;;25.98;36.21;100941.08;1730508;82;21000;-81
2022/07/14 00:34:41;;;;;;;3.80;1.67;;;;;;;25.98;36.22;100941.08;1730395;81;21024;-81
2022/07/14 00:37:07;;;;;;;4.00;1.70;;;;;;;25.96;36.23;100945.63;1730267;81;21127;-81
2022/07/14 00:42:34;;;;;;;3.00;1.72;;;;;;;25.98;36.22;100945.26;1730026;81;21498;-82
2022/07/14 00:45:04;;;;;;;3.22;1.77;;;;;;;25.97;36.25;100947.84;1730539;81;21078;-82
2022/07/14 00:47:30;;;;;;;3.40;1.50;;;;;;;25.97;36.23;100950.62;1730181;81;21051;-82
2022/07/14 00:49:56;;;;;;;6.10;1.87;;;;;;;25.97;36.23;100945.05;1730598;82;21227;-82
2022/07/14 00:52:24;;;;;;;5.33;2.15;;;;;;;25.96;36.25;100947.02;1711491;82;21051;-82
2022/07/14 00:54:51;;;;;;;2.70;1.70;;;;;;;25.97;36.28;100943.66;1730054;81;21048;-82
2022/07/14 00:57:18;;;;;;;3.85;1.80;;;;;;;25.97;36.27;100940.87;1730191;81;21067;-82
2022/07/14 00:59:45;;;;;;;3.62;1.82;;;;;;;25.97;36.27;100938.08;1742484;82;21143;-82
2022/07/14 01:02:12;;;;;;;3.90;1.72;;;;;;;25.96;36.29;100941.45;1743840;82;21181;-82
2022/07/14 01:04:38;;;;;;;3.87;1.82;;;;;;;25.97;36.29;100935.30;1722391;82;21575;-81
2022/07/14 01:07:05;;;;;;;6.40;1.80;;;;;;;25.97;36.30;100931.11;1743691;81;21110;-81
2022/07/14 01:09:31;;;;;;;4.12;1.92;;;;;;;25.96;36.29;100935.87;1743443;81;21016;-81
2022/07/14 01:11:58;;;;;;;3.37;1.90;;;;;;;25.96;36.29;100934.48;1743505;82;21064;-81
2022/07/14 01:14:24;;;;;;;2.85;1.82;;;;;;;25.95;36.29;100932.84;1743769;82;22127;-81
2022/07/14 01:16:55;;;;;;;4.20;2.05;;;;;;;25.96;36.32;100935.05;1743329;82;21100;-81
2022/07/14 01:19:22;;;;;;;;;;;;;;;25.96;36.33;100938.66;1746399;82;21130;-82
2022/07/14 01:21:53;;;;;;;3.75;1.70;;;;;;;25.95;36.34;100937.60;1743742;82;20153;-82
2022/07/14 01:24:20;;;;;;;3.40;1.80;;;;;;;25.93;36.36;100933.19;1743584;82;21012;-81
2022/07/14 01:26:47;;;;;;;3.65;1.80;;;;;;;25.93;36.36;100934.58;1744059;82;21098;-81
2022/07/14 01:29:13;;;;;;;3.10;1.80;;;;;;;25.93;36.38;100939.34;1743934;81;21036;-79
2022/07/14 01:31:40;;;;;;;4.05;1.98;;;;;;;25.93;36.40;100939.34;1743861;81;21064;-81
2022/07/14 01:34:06;;;;;;;2.05;1.30;;;;;;;25.93;36.43;100941.55;1744183;82;21115;-80
2022/07/14 01:36:32;;;;;;;4.15;1.57;;;;;;;25.93;36.43;100942.94;1744192;82;21028;-80
2022/07/14 01:38:59;;;;;;;4.55;1.60;;;;;;;25.93;36.44;100933.77;1743852;82;21173;-81
2022/07/14 01:41:25;;;;;;;5.05;1.75;;;;;;;25.93;36.48;100934.58;1744228;82;21068;-81
2022/07/14 01:43:52;;;;;;;3.37;1.50;;;;;;;25.93;36.49;100931.79;1744021;81;21079;-82
2022/07/14 01:46:19;;;;;;;5.22;1.80;;;;;;;25.93;36.49;100934.38;1743491;82;21020;-82
2022/07/14 01:48:45;;;;;;;3.62;1.60;;;;;;;25.93;36.52;100937.36;1743659;81;21131;-82
2022/07/14 01:51:12;;;;;;;2.58;1.50;;;;;;;25.93;36.53;100935.16;1743972;82;21945;-82
2022/07/14 01:53:38;;;;;;;4.35;1.60;;;;;;;25.93;36.53;100942.94;1743516;80;21024;-82
2022/07/14 01:56:05;;;;;;;3.90;1.60;;;;;;;25.93;36.55;100938.76;1743905;81;21059;-82
2022/07/14 01:58:31;;;;;;;4.05;1.70;;;;;;;25.93;36.55;100933.77;1738145;81;21078;-82
2022/07/14 02:03:44;;;;;;;7.05;1.70;;;;;;;25.93;36.59;100935.77;1722745;83;22136;-82
2022/07/14 02:06:13;;;;;;;3.60;1.50;;;;;;;25.92;36.55;100939.13;1722768;83;21545;-82
2022/07/14 02:08:40;;;;;;;2.77;1.60;;;;;;;25.92;36.57;100937.73;1722792;83;21071;-82
2022/07/14 02:13:51;;;;;;;4.42;1.62;;;;;;;25.93;36.61;100941.34;1722845;83;21039;-80
2022/07/14 02:16:18;;;;;;;3.27;1.42;;;;;;;25.91;36.60;100939.70;1722860;82;21500;-81
2022/07/14 02:18:44;;;;;;;5.15;1.57;;;;;;;25.91;36.62;100937.50;1722957;83;21623;-82
2022/07/14 02:21:11;;;;;;;3.40;1.62;;;;;;;25.90;36.64;100941.44;1722609;83;22152;-82
2022/07/14 02:23:37;;;;;;;4.03;1.60;;;;;;;25.91;36.64;100945.28;1723055;83;21004;-81
2022/07/14 02:26:03;;;;;;;2.60;1.70;;;;;;;25.91;36.66;100948.65;1723080;83;21128;-82
2022/07/14 02:28:30;;;;;;;4.05;1.70;;;;;;;25.90;36.64;100950.62;1702133;83;21123;-81
2022/07/14 02:30:56;;;;;;;5.05;1.57;;;;;;;25.90;36.67;100948.41;1722939;83;21051;-82
2022/07/14 02:33:23;;;;;;;2.95;1.62;;;;;;;25.90;36.67;100947.83;1723115;83;21541;-82
2022/07/14 02:35:55;;;;;;;3.17;1.50;;;;;;;25.91;36.69;100952.83;1722883;83;21095;-82
2022/07/14 02:38:21;;;;;;;4.22;1.37;;;;;;;25.90;36.70;100947.02;1723223;82;20991;-82
2022/07/14 02:40:48;;;;;;;4.40;1.70;;;;;;;25.90;36.70;100952.59;1723030;82;21051;-82
2022/07/14 02:43:14;;;;;;;4.70;1.60;;;;;;;25.89;36.70;100943.41;1722575;83;21534;-81
2022/07/14 02:45:41;;;;;;;2.90;1.25;;;;;;;25.90;36.70;100951.20;1723086;83;21079;-82
2022/07/14 02:48:07;;;;;;;4.30;1.50;;;;;;;25.90;36.73;100953.98;1723157;83;21051;-82
2022/07/14 02:50:36;;;;;;;4.95;1.50;;;;;;;25.89;36.71;100955.95;1722955;83;21516;-82
2022/07/14 02:53:03;;;;;;;2.20;1.30;;;;;;;25.90;36.73;100952.59;1723062;81;21026;-82
2022/07/14 02:55:30;;;;;;;2.70;1.50;;;;;;;25.89;36.71;100953.17;1723054;83;21066;-82
2022/07/14 02:57:56;;;;;;;2.20;1.40;;;;;;;25.89;36.67;100949.56;1722856;82;21593;-81
2022/07/14 03:00:22;;;;;;;2.77;1.60;;;;;;;25.89;36.68;100952.35;1727090;81;21042;-82
2022/07/14 03:02:49;;;;;;;6.10;1.67;;;;;;;25.89;36.68;100962.11;1697090;83;21552;-81
2022/07/14 03:05:16;;;;;;;2.85;1.55;;;;;;;25.89;36.68;100960.14;1727902;83;22034;-82
2022/07/14 03:07:42;;;;;;;3.12;1.52;;;;;;;25.88;36.69;100959.93;1727976;81;21038;-81
2022/07/14 03:10:09;;;;;;;2.72;1.60;;;;;;;25.88;36.70;100965.50;1728013;81;21438;-82
2022/07/14 03:12:35;;;;;;;2.55;1.62;;;;;;;25.89;36.69;100971.87;1727729;81;21566;-81
2022/07/14 03:15:02;;;;;;;3.47;1.62;;;;;;;25.88;36.70;100970.27;1728132;81;21074;-81
2022/07/14 03:17:28;;;;;;;4.15;1.60;;;;;;;25.89;36.70;100971.87;1727982;82;21090;-81
2022/07/14 03:19:55;;;;;;;2.45;1.27;;;;;;;25.88;36.75;100974.45;1727719;81;21081;-81
2022/07/14 03:22:21;;;;;;;4.08;1.60;;;;;;;25.89;36.75;100981.05;1727933;81;21112;-81
2022/07/14 03:24:48;;;;;;;3.40;1.67;;;;;;;25.89;36.79;100974.66;1697386;83;21037;-82
2022/07/14 03:27:14;;;;;;;2.98;1.72;;;;;;;25.88;36.79;100978.63;1727683;83;21070;-81
2022/07/14 03:29:41;;;;;;;3.67;1.70;;;;;;;25.88;36.82;100975.27;1728018;83;21212;-81
2022/07/14 03:32:08;;;;;;;4.40;1.80;;;;;;;25.87;36.84;100972.23;1697181;83;21329;-81
2022/07/14 03:34:34;;;;;;;2.10;1.27;;;;;;;25.87;36.85;100972.23;1727788;81;21045;-81
2022/07/14 03:37:01;;;;;;;2.15;1.47;;;;;;;25.89;36.87;100978.83;1727721;81;21099;-81
2022/07/14 03:39:27;;;;;;;4.22;1.70;;;;;;;25.87;36.89;100972.23;1727571;81;21562;-81
2022/07/14 03:41:53;;;;;;;5.60;1.90;;;;;;;25.88;36.93;100977.23;1727561;81;21061;-82
2022/07/14 03:44:25;;;;;;;3.40;1.60;;;;;;;25.87;36.94;100975.02;1727836;81;21093;-80
2022/07/14 03:46:52;;;;;;;3.10;1.62;;;;;;;25.87;36.95;100980.59;1728154;81;21050;-82
2022/07/14 03:49:18;;;;;;;3.72;1.85;;;;;;;25.88;36.95;100985.02;1727632;81;21491;-82
2022/07/14 03:51:45;;;;;;;4.92;1.55;;;;;;;25.87;36.98;100985.36;1727961;81;21516;-81
2022/07/14 03:54:11;;;;;;;4.22;1.47;;;;;;;25.88;36.99;100988.38;1727623;81;22053;-81
2022/07/14 03:56:37;;;;;;;2.45;1.40;;;;;;;25.88;37.00;100991.17;1720984;82;21399;-81
2022/07/14 03:59:05;;;;;;;4.22;1.70;;;;;;;25.88;37.02;100996.75;1726869;82;21064;-82
2022/07/14 04:01:31;;;;;;;3.37;1.77;;;;;;;25.88;37.02;100991.98;1723405;83;21605;-82
2022/07/14 04:03:57;;;;;;;3.87;1.70;;;;;;;25.89;37.03;100994.16;1723037;83;21091;-82
2022/07/14 04:06:24;;;;;;;3.05;1.47;;;;;;;25.88;37.06;101004.53;1723245;83;21142;-82
2022/07/14 04:08:50;;;;;;;3.12;1.60;;;;;;;25.89;37.09;101009.50;1723118;83;21106;-81
2022/07/14 04:11:16;;;;;;;2.42;1.55;;;;;;;25.88;37.08;101008.71;1722967;83;21504;-82
2022/07/14 04:13:43;;;;;;;2.08;1.47;;;;;;;25.88;37.10;101007.32;1723008;83;21059;-82
2022/07/14 04:16:10;;;;;;;3.08;1.50;;;;;;;25.89;37.12;101004.73;1722836;83;21754;-82
2022/07/14 04:18:36;;;;;;;3.08;1.50;;;;;;;25.89;37.13;101002.53;1722613;83;20971;-82
2022/07/14 04:21:03;;;;;;;2.70;1.75;;;;;;;25.89;37.13;101004.73;1702397;83;20979;-81
2022/07/14 04:23:30;;;;;;;4.22;1.60;;;;;;;25.89;37.15;101009.50;1723201;83;21074;-82
2022/07/14 04:25:56;;;;;;;5.17;1.80;;;;;;;25.89;37.15;101001.95;1702493;83;21067;-82
2022/07/14 04:28:23;;;;;;;2.47;1.32;;;;;;;25.89;37.15;101008.92;1723341;83;21301;-82
2022/07/14 04:30:49;;;;;;;4.70;1.85;;;;;;;25.90;37.16;101004.16;1723360;83;21718;-82
2022/07/14 04:33:21;;;;;;;3.98;1.65;;;;;;;25.89;37.19;100996.37;1722792;82;20980;-82
2022/07/14 04:35:48;;;;;;;4.40;1.70;;;;;;;25.90;37.20;101003.58;1723083;83;21011;-81
2022/07/14 04:38:15;;;;;;;3.87;1.40;;;;;;;25.90;37.24;101002.77;1723126;82;21039;-82
2022/07/14 04:40:51;;;;;;;3.00;1.42;;;;;;;25.91;37.22;101007.19;1722974;83;21734;-82
2022/07/14 04:43:18;;;;;;;2.83;1.50;;;;;;;25.90;37.26;101002.77;1723202;83;21958;-81
2022/07/14 04:45:51;;;;;;;2.15;1.35;;;;;;;25.90;37.24;101007.77;1722892;82;21071;-81
2022/07/14 04:48:17;;;;;;;2.77;1.50;;;;;;;25.91;37.24;101008.00;1723239;83;21002;-82
2022/07/14 04:53:28;;;;;;;2.65;1.70;;;;;;;25.91;37.25;101016.95;1697749;83;20964;-82
2022/07/14 04:55:54;;;;;;;3.27;1.70;;;;;;;25.91;37.27;101016.95;1703066;83;21070;-82
2022/07/14 04:58:24;;;;;;;3.85;1.95;;;;;;;25.93;37.30;101013.21;1702780;82;21039;-82
2022/07/14 05:00:49;;;;;;;2.85;1.55;;;;;;;25.93;37.31;101020.18;1675754;82;21084;-82
2022/07/14 05:03:16;;;;;;;4.70;1.95;;;;;;;25.93;37.31;101016.00;1675529;85;21120;-81
2022/07/14 05:05:42;;;;;;;3.37;2.20;;;;;;;25.93;37.34;101016.61;1660252;84;21103;-81
2022/07/14 05:08:09;;;;;;;7.35;2.30;;;;;;;25.91;37.38;101021.94;1658969;85;21986;-82
2022/07/14 05:10:35;;;;;;;6.28;2.30;;;;;;;25.90;37.34;101027.28;1659137;84;21074;-81
2022/07/14 05:13:02;;;;;;;4.87;2.50;;;;;;;25.88;37.32;101028.22;1659192;85;21071;-81
2022/07/14 05:15:28;;;;;;;4.15;2.30;;;;;;;25.85;37.31;101026.69;1658870;85;21665;-81
2022/07/14 05:17:56;;;;;;;8.43;2.80;;;;;;;25.79;37.33;101028.09;1659243;85;21063;-81
2022/07/14 05:20:23;;;;;;;11.20;2.45;;;;;;;25.74;37.38;101026.34;1659261;85;22002;-81
2022/07/14 05:22:49;;;;;;;6.72;2.47;;;;;;;25.70;37.41;101023.20;1659068;85;21073;-81
2022/07/14 05:25:16;;;;;;;5.97;2.30;;;;;;;25.67;37.43;101030.88;1679625;83;21043;-81
2022/07/14 05:27:44;;;;;;;6.17;2.50;;;;;;;25.66;37.48;101032.03;1686943;83;21103;-81
2022/07/14 05:30:12;;;;;;;6.85;2.30;;;;;;;25.66;37.46;101034.24;1686616;85;21091;-82
2022/07/14 05:32:39;;;;;;;5.87;2.17;;;;;;;25.66;37.45;101033.42;1686856;85;21248;-81
2022/07/14 05:35:06;;;;;;;3.92;2.30;;;;;;;25.66;37.49;101037.03;1686907;83;21068;-82
2022/07/14 05:37:32;;;;;;;8.68;2.30;;;;;;;25.69;37.48;101036.91;1686788;83;21048;-82
2022/07/14 05:39:58;;;;;;;4.95;2.02;;;;;;;25.71;37.46;101028.45;1686915;83;21059;-81
2022/07/14 05:42:25;;;;;;;5.10;2.17;;;;;;;25.72;37.43;101031.44;1686804;84;21039;-82
2022/07/14 05:44:51;;;;;;;4.87;2.12;;;;;;;25.73;37.44;101037.26;1688023;82;21164;-82
2022/07/14 05:47:18;;;;;;;9.20;2.35;;;;;;;25.74;37.44;101035.28;1691962;83;21009;-82
2022/07/14 05:49:44;;;;;;;15.68;3.17;;;;;;;25.73;37.45;101037.26;1715681;83;21450;-83
2022/07/14 05:52:13;;;;;;;9.63;2.40;;;;;;;25.74;37.51;101040.86;1715616;83;20980;-81
2022/07/14 05:54:40;;;;;;;5.90;2.02;;;;;;;25.74;37.55;101040.86;1713615;83;21069;-82
2022/07/14 05:57:09;;;;;;;9.03;2.00;;;;;;;25.75;37.54;101038.31;1695584;82;21049;-80
2022/07/14 05:59:35;;;;;;;8.50;2.15;;;;;;;25.74;37.55;101036.68;1680330;80;21055;-81
2022/07/14 06:02:02;;;;;;;12.50;2.47;;;;;;;25.75;37.52;101044.70;1760789;79;21125;-81
2022/07/14 06:04:29;;;;;;;9.85;2.08;;;;;;;25.74;37.53;101036.68;1769471;80;21521;-82
2022/07/14 06:06:55;;;;;;;8.75;2.33;;;;;;;25.75;37.58;101044.70;1772650;79;21109;-81
2022/07/14 06:09:22;;;;;;;9.08;2.47;;;;;;;25.75;37.55;101042.49;1759189;79;21401;-82
2022/07/14 06:11:48;;;;;;;7.83;2.10;;;;;;;25.75;37.59;101039.70;1761374;80;21660;-80
2022/07/14 06:14:15;;;;;;;6.45;1.95;;;;;;;25.76;37.58;101041.31;1751853;79;21066;-82
2022/07/14 06:16:42;;;;;;;7.50;2.40;;;;;;;25.78;37.58;101049.58;1756372;80;21102;-82
2022/07/14 06:19:08;;;;;;;5.22;2.25;;;;;;;25.79;37.54;101047.03;1749328;79;21141;-81
2022/07/14 06:21:35;;;;;;;9.28;2.12;;;;;;;25.80;37.49;101047.84;1746137;80;21747;-81
2022/07/14 06:24:01;;;;;;;9.08;2.37;;;;;;;25.79;37.48;101037.27;1754476;79;21053;-81
2022/07/14 06:26:28;;;;;;;5.58;1.80;;;;;;;25.81;37.42;101042.48;1731378;79;21106;-81
2022/07/14 06:28:54;;;;;;;10.00;2.00;;;;;;;25.82;37.32;101040.75;1734522;80;21077;-82
2022/07/14 06:31:21;;;;;;;5.28;2.05;;;;;;;25.84;37.16;101035.62;1740717;79;21902;-81
2022/07/14 06:33:47;;;;;;;6.22;2.00;;;;;;;25.83;37.12;101038.20;1748671;80;21930;-81
2022/07/14 06:36:13;;;;;;;3.65;1.85;;;;;;;25.86;37.07;101033.89;1749639;80;21055;-80
2022/07/14 06:38:46;;;;;;;6.40;1.95;;;;;;;25.85;36.92;101035.87;1753543;79;21065;-81
2022/07/14 06:41:12;;;;;;;5.08;2.05;;;;;;;25.88;36.88;101037.16;1760443;79;21019;-84
2022/07/14 06:43:39;;;;;;;6.55;2.08;;;;;;;25.88;36.89;101034.38;1747243;80;21121;-82
2022/07/14 06:46:07;;;;;;;7.40;2.10;;;;;;;25.88;36.90;101031.02;1758541;79;21094;-82
2022/07/14 06:48:33;;;;;;;3.95;1.85;;;;;;;25.90;36.90;101033.43;1774128;79;21588;-82
2022/07/14 06:51:06;;;;;;;4.85;1.90;;;;;;;25.93;36.83;101026.36;1748835;80;21090;-82
2022/07/14 06:53:33;;;;;;;5.37;1.77;;;;;;;25.93;36.68;101027.97;1737438;80;21046;-81
2022/07/14 06:55:59;;;;;;;6.53;1.70;;;;;;;25.93;36.59;101027.15;1750947;80;21091;-82
2022/07/14 06:58:26;;;;;;;3.98;1.40;;;;;;;25.95;36.58;101024.84;1742836;80;21188;-81
2022/07/14 07:00:52;;;;;;;4.25;1.82;;;;;;;25.96;36.43;101015.32;1758467;80;21118;-80
2022/07/14 07:03:19;;;;;;;4.33;1.60;;;;;;;25.98;36.31;101021.92;1759855;80;21066;-81
2022/07/14 07:08:30;;;;;;;5.05;2.05;;;;;;;26.01;36.30;101016.48;1738603;82;21077;-81
2022/07/14 07:10:57;;;;;;;8.53;1.95;;;;;;;26.02;36.23;101011.13;1750145;80;21170;-81
2022/07/14 07:13:24;;;;;;;7.55;1.90;;;;;;;26.04;36.10;101019.96;1759826;80;21058;-80
2022/07/14 07:15:52;;;;;;;7.22;2.87;;;;;;;26.06;35.96;101014.02;1757339;80;22169;-80
2022/07/14 07:18:18;;;;;;;4.78;2.77;;;;;;;26.05;35.75;101009.63;1763030;80;21050;-81
2022/07/14 07:20:45;;;;;;;4.45;1.90;;;;;;;26.06;35.66;101007.86;1728253;80;21077;-80
2022/07/14 07:23:11;;;;;;;4.53;1.77;;;;;;;26.07;35.57;101007.28;1759045;80;21117;-81
2022/07/14 07:25:38;;;;;;;5.35;1.92;;;;;;;26.09;35.46;101015.55;1757711;80;21074;-81
2022/07/14 07:28:06;;;;;;;5.30;1.67;;;;;;;26.09;35.52;101011.37;1728012;81;21473;-80
2022/07/14 07:30:32;;;;;;;2.25;1.30;;;;;;;26.10;35.43;101010.18;1764235;80;21030;-81
2022/07/14 07:32:58;;;;;;;3.72;1.82;;;;;;;26.13;35.36;101019.84;1757181;80;21054;-82
2022/07/14 07:35:25;;;;;;;5.37;1.60;;;;;;;26.14;35.39;101015.89;1765479;78;21107;-81
2022/07/14 07:37:51;;;;;;;4.35;1.67;;;;;;;26.15;35.37;101014.70;1756028;80;21075;-80
2022/07/14 07:40:18;;;;;;;6.22;1.47;;;;;;;26.17;35.30;101016.00;1758120;80;21623;-81
2022/07/14 07:42:44;;;;;;;4.33;1.55;;;;;;;26.17;35.24;101014.61;1755862;80;21563;-81
2022/07/14 07:45:11;;;;;;;3.65;1.45;;;;;;;26.19;35.09;101010.88;1757006;80;21066;-80
2022/07/14 07:47:37;;;;;;;6.37;1.62;;;;;;;26.20;35.04;101008.93;1757467;80;21287;-81
2022/07/14 07:50:10;;;;;;;4.37;1.57;;;;;;;26.21;35.01;101010.56;1787851;80;21036;-82
2022/07/14 07:52:38;;;;;;;2.72;1.47;;;;;;;26.22;34.97;101004.64;1788414;80;21032;-82
2022/07/14 07:55:09;;;;;;;4.55;1.65;;;;;;;26.22;34.90;101006.04;1788447;79;21055;-80
2022/07/14 07:57:36;;;;;;;5.40;1.45;;;;;;;26.23;34.87;101006.25;1755989;80;21018;-81
2022/07/14 08:00:06;;;;;;;4.75;1.65;;;;;;;26.25;34.89;101005.33;1757471;80;21117;-81
2022/07/14 08:02:32;;;;;;;7.43;3.43;;;;;;;26.25;34.88;101003.94;1751679;80;21021;-81
2022/07/14 08:05:00;;;;;;;10.50;4.80;;;;;;;26.27;34.88;101002.17;1752008;81;21643;-80
2022/07/14 08:07:27;;;;;;;7.10;2.70;;;;;;;26.28;34.78;101005.20;1751591;81;21132;-81
2022/07/14 08:09:53;;;;;;;3.58;1.72;;;;;;;26.28;34.73;101001.83;1751588;81;21087;-80
2022/07/14 08:12:20;;;;;;;2.80;1.62;;;;;;;26.31;34.61;101001.69;1751367;81;21058;-81
2022/07/14 08:14:49;;;;;;;2.58;1.32;;;;;;;26.32;34.47;100999.95;1751830;80;21072;-81
2022/07/14 08:17:17;;;;;;;2.92;1.02;;;;;;;26.32;34.46;100991.59;1752444;80;21052;-80
2022/07/14 08:19:43;;;;;;;2.25;1.45;;;;;;;26.35;34.08;100995.06;1770327;80;21047;-81
2022/07/14 08:22:09;;;;;;;5.03;1.47;;;;;;;26.40;33.95;100994.01;1753625;81;21121;-81
2022/07/14 08:24:36;;;;;;;5.72;1.80;;;;;;;26.42;33.79;100993.66;1748777;81;21862;-81
2022/07/14 08:27:02;;;;;;;4.35;1.67;;;;;;;26.42;33.82;100993.08;1749198;80;21791;-80
2022/07/14 08:29:29;;;;;;;2.65;1.10;;;;;;;26.43;33.88;100988.33;1751783;81;21069;-81
2022/07/14 08:31:55;;;;;;;2.10;1.20;;;;;;;26.42;33.90;100990.30;1738726;81;21104;-81
2022/07/14 08:34:22;;;;;;;2.98;1.50;;;;;;;26.43;33.69;100985.53;1741467;80;21104;-81
2022/07/14 08:36:48;;;;;;;2.45;1.55;;;;;;;26.46;33.59;100982.84;1752654;80;21013;-81
2022/07/14 08:39:16;;;;;;;3.00;1.35;;;;;;;26.46;33.69;100982.84;1752239;80;21081;-81
2022/07/14 08:41:43;;;;;;;3.15;1.47;;;;;;;26.46;33.72;100982.02;1751779;81;22079;-81
2022/07/14 08:44:10;;;;;;;5.80;1.30;;;;;;;26.46;33.71;100980.05;1743887;80;21144;-80
2022/07/14 08:46:38;;;;;;;2.22;1.40;;;;;;;26.46;33.64;100972.27;1738842;80;21033;-80
2022/07/14 08:49:11;;;;;;;3.62;1.50;;;;;;;26.47;33.51;100974.70;1748072;80;21561;-80
2022/07/14 08:51:38;;;;;;;3.87;1.10;;;;;;;26.50;33.51;100962.02;1751911;80;21032;-80
2022/07/14 08:54:05;;;;;;;2.55;1.17;;;;;;;26.51;33.43;100971.44;1751378;80;21650;-81
2022/07/14 08:56:32;;;;;;;4.85;1.32;;;;;;;26.52;33.31;100967.46;1751825;81;21093;-81
2022/07/14 08:58:59;;;;;;;4.95;1.12;;;;;;;26.52;33.23;100973.04;1751701;81;21033;-82
2022/07/14 09:01:27;;;;;;;4.50;1.25;;;;;;;26.55;33.11;100968.75;1755280;80;21102;-82
2022/07/14 09:03:59;;;;;;;4.25;0.95;;;;;;;26.59;33.04;100968.27;1735938;81;21067;-81
2022/07/14 09:06:54;;;;;;;5.50;1.30;;;;;;;26.62;32.84;100960.57;1728855;81;21048;-80
2022/07/14 09:09:21;;;;;;;3.47;1.27;;;;;;;26.66;32.78;100965.09;1713455;82;21141;-81
2022/07/14 09:12:06;;;;;;;5.58;1.02;;;;;;;26.67;32.77;100970.09;1708737;81;21632;-81
2022/07/14 09:17:27;;;;;;;5.35;1.30;;;;;;;26.66;32.80;100960.91;1727454;81;21366;-80
2022/07/14 09:20:10;;;;;;;4.10;1.20;;;;;;;26.65;32.86;100955.09;1703491;82;21662;-80
2022/07/14 09:22:40;;;;;;;3.42;1.20;;;;;;;26.66;32.84;100956.72;1730528;81;21554;-80
2022/07/14 09:25:11;;;;;;;2.63;1.00;;;;;;;26.65;32.82;100948.72;1731481;80;20936;-81
2022/07/14 09:27:37;;;;;;;2.50;1.05;;;;;;;26.67;32.80;100946.38;1737035;82;21328;-80
2022/07/14 09:30:05;;;;;;;6.03;1.60;;;;;;;26.69;32.82;100942.66;1704403;81;21042;-80
2022/07/14 09:32:57;;;;;;;2.02;1.20;;;;;;;26.71;32.81;100941.70;1684954;83;20873;-80
2022/07/14 09:35:26;;;;;;;2.95;1.22;;;;;;;26.72;32.84;100944.73;1679037;83;20936;-80
2022/07/14 09:37:55;;;;;;;2.83;1.00;;;;;;;26.70;32.82;100939.48;1684893;83;21059;-80
2022/07/14 09:40:27;;;;;;;3.42;1.30;;;;;;;26.69;32.73;100937.86;1686633;83;21740;-82
2022/07/14 09:42:59;;;;;;;3.55;1.40;;;;;;;26.69;32.58;100936.46;1663824;84;21079;-80
2022/07/14 09:45:34;;;;;;;2.40;1.17;;;;;;;26.72;32.46;100924.61;1684459;83;21091;-80
2022/07/14 09:48:10;;;;;;;2.17;1.00;;;;;;;26.73;32.30;100928.21;1687678;83;21645;-82
2022/07/14 09:51:05;;;;;;;1.85;1.12;;;;;;;26.73;32.28;100918.45;1681476;85;21118;-82
2022/07/14 09:53:35;;;;;;;5.12;1.57;;;;;;;26.79;32.34;100917.81;1686574;82;21671;-82
2022/07/14 09:56:07;;;;;;;3.08;1.20;;;;;;;26.81;32.38;100931.42;1693029;83;21138;-83
2022/07/14 09:58:44;;;;;;;3.12;1.40;;;;;;;26.79;32.40;100928.98;1683608;83;21087;-81
2022/07/14 10:01:20;;;;;;;4.35;1.20;;;;;;;26.77;32.41;100920.75;1673009;83;21087;-82
2022/07/14 10:03:48;;;;;;;2.98;1.70;;;;;;;26.75;32.30;100927.26;1703014;82;21051;-83
2022/07/14 10:06:15;;;;;;;4.83;1.40;;;;;;;26.74;32.21;100925.05;1714397;82;21994;-83
2022/07/14 10:08:43;;;;;;;2.83;1.20;;;;;;;26.75;32.07;100918.30;1717688;82;21047;-82
2022/07/14 10:11:12;;;;;;;2.45;1.00;;;;;;;26.88;31.77;100913.49;1723946;81;21055;-83
2022/07/14 10:13:38;;;;;;;2.77;1.30;;;;;;;26.97;31.67;100916.94;1716304;81;21067;-82
2022/07/14 10:16:07;;;;;;;2.33;1.20;;;;;;;27.03;31.66;100919.67;1716067;82;21095;-81
2022/07/14 10:18:33;;;;;;;2.17;1.15;;;;;;;27.02;31.74;100920.05;1716849;83;21094;-82
2022/07/14 10:21:01;;;;;;;3.22;1.17;;;;;;;27.00;31.80;100915.39;1717228;83;21047;-81
2022/07/14 10:23:29;;;;;;;3.77;1.40;;;;;;;26.96;31.76;100911.11;1716261;82;21141;-82
2022/07/14 10:25:57;;;;;;;2.22;1.25;;;;;;;26.94;31.82;100912.08;1695942;83;21052;-82
2022/07/14 10:28:26;;;;;;;5.47;1.35;;;;;;;26.93;31.82;100909.05;1716986;82;21126;-85
2022/07/14 10:31:15;;;;;;;2.15;1.20;;;;;;;26.93;31.77;100906.26;1709975;83;22172;-82
2022/07/14 10:33:59;;;;;;;1.77;1.10;;;;;;;26.95;31.75;100905.88;1716137;81;21557;-85
2022/07/14 10:36:55;;;;;;;2.95;0.98;;;;;;;27.04;31.55;100898.96;1692851;83;21111;-82
2022/07/14 10:39:43;;;;;;;2.90;1.02;;;;;;;27.05;31.56;100903.96;1724914;81;21033;-82
2022/07/14 10:43:06;;;;;;;2.02;1.07;;;;;;;27.02;31.63;100899.92;1706459;81;21060;-81
2022/07/14 10:45:33;;;;;;;2.87;1.00;;;;;;;26.99;31.62;100892.85;1686684;83;21496;-80
2022/07/14 10:48:00;;;;;;;1.22;0.88;;;;;;;26.99;31.55;100886.66;1707794;81;21342;-79
2022/07/14 10:50:28;;;;;;;2.87;0.85;;;;;;;27.02;31.47;100876.19;1716177;82;21000;-80
2022/07/14 10:53:02;;;;;;;1.55;0.90;;;;;;;27.04;31.49;100882.20;1696893;82;21162;-79
2022/07/14 10:55:33;;;;;;;3.92;1.22;;;;;;;27.02;31.55;100881.77;1718892;82;21635;-82
2022/07/14 10:58:08;;;;;;;2.42;0.88;;;;;;;27.03;31.62;100877.00;1718575;82;21144;-81
2022/07/14 11:00:55;;;;;;;3.35;1.00;;;;;;;27.02;31.64;100875.38;1716181;82;21272;-80
2022/07/14 11:03:34;;;;;;;1.65;0.90;;;;;;;27.00;31.75;100874.33;1694214;82;21136;-81
2022/07/14 11:06:09;;;;;;;2.52;1.30;;;;;;;27.03;31.68;100871.41;1694220;83;21066;-81
2022/07/14 11:08:38;;;;;;;1.15;0.70;;;;;;;27.10;31.57;100868.80;1693103;82;21594;-81
2022/07/14 11:11:08;;;;;;;3.67;1.00;;;;;;;27.11;31.53;100868.45;1693558;82;21307;-81
2022/07/14 11:13:33;;;;;;;1.40;0.80;;;;;;;27.22;31.33;100864.51;1695954;82;21195;-82
2022/07/14 11:16:03;;;;;;;3.52;0.85;;;;;;;27.22;31.29;100861.13;1671846;84;22152;-81
2022/07/14 11:18:35;;;;;;;2.22;1.00;;;;;;;27.21;31.28;100859.50;1724549;82;21036;-79
2022/07/14 11:21:17;;;;;;;2.30;1.02;;;;;;;27.21;31.31;100847.52;1729402;82;21838;-80
2022/07/14 11:23:52;;;;;;;2.20;0.93;;;;;;;27.21;31.24;100853.91;1661972;86;21358;-81
2022/07/14 11:26:40;;;;;;;3.83;1.02;;;;;;;27.20;31.28;100852.90;1683462;84;21140;-81
2022/07/14 11:29:08;;;;;;;1.85;1.12;;;;;;;27.16;31.26;100851.39;1679495;82;21095;-81
2022/07/14 11:31:49;;;;;;;3.12;1.25;;;;;;;27.13;31.25;100848.52;1678766;83;21130;-81
2022/07/14 11:37:06;;;;;;;;;;;;;;;27.10;31.26;100846.45;1673230;85;21142;-81
2022/07/14 11:39:42;;;;;;;2.60;0.90;;;;;;;27.08;31.30;100844.01;1680624;83;20477;-80
2022/07/14 11:42:16;;;;;;;1.12;0.80;;;;;;;27.06;31.39;100843.58;1634196;86;21163;-79
2022/07/14 11:44:54;;;;;;;2.70;1.00;;;;;;;27.06;31.41;100842.77;1621211;87;22444;-80
2022/07/14 11:47:29;;;;;;;2.52;1.35;;;;;;;27.11;31.41;100850.87;1683690;83;21071;-81
2022/07/14 11:50:07;;;;;;;3.27;1.22;;;;;;;27.16;31.42;100843.59;1668200;83;21569;-81
2022/07/14 11:52:37;;;;;;;1.70;1.17;;;;;;;27.18;31.38;100846.27;1682866;82;21076;-80